Time;durP1;ratioP1;P1;durP2;ratioP2;P2;SDS_P1;SDS_P2;PMS_P1;PMS_P2;Temp;Humidity;BMP_temperature;BMP_pressure;BME280_temperature;BME280_humidity;BME280_pressure;Samples;Min_cycle;Max_cycle;Signal;HPM_P1;HPM_P2
2023/07/25 00:01:13;;;;;;;3.47;3.17;;;16.40;99.90;;;;;;4986662;28;20432;-73
2023/07/25 00:03:40;;;;;;;3.63;3.03;;;16.50;99.90;;;;;;4983811;28;20514;-73
2023/07/25 00:06:07;;;;;;;5.57;3.70;;;16.40;99.90;;;;;;4982304;28;20480;-73
2023/07/25 00:08:33;;;;;;;3.30;3.00;;;16.50;99.90;;;;;;4987634;28;20437;-74
2023/07/25 00:11:00;;;;;;;3.73;3.40;;;16.50;99.90;;;;;;4991396;28;20492;-73
2023/07/25 00:13:27;;;;;;;5.10;3.83;;;16.50;99.90;;;;;;4987547;28;20430;-73
2023/07/25 00:15:54;;;;;;;3.90;3.23;;;16.60;99.90;;;;;;4992962;28;20507;-74
2023/07/25 00:18:22;;;;;;;4.93;3.17;;;16.50;99.90;;;;;;4977357;28;20458;-73
2023/07/25 00:20:49;;;;;;;3.37;3.10;;;16.50;99.90;;;;;;4986931;28;20472;-73
2023/07/25 00:23:15;;;;;;;3.03;2.73;;;16.60;99.90;;;;;;4986532;28;20953;-73
2023/07/25 00:25:42;;;;;;;3.40;2.73;;;16.60;99.90;;;;;;4994359;28;20453;-73
2023/07/25 00:28:08;;;;;;;5.40;3.30;;;16.60;99.90;;;;;;4994451;28;20471;-73
2023/07/25 00:30:35;;;;;;;3.20;3.00;;;16.60;99.90;;;;;;4978682;28;20475;-74
2023/07/25 00:33:02;;;;;;;3.13;2.93;;;16.50;99.90;;;;;;4981045;28;20437;-73
2023/07/25 00:35:30;;;;;;;3.40;3.10;;;16.50;99.90;;;;;;4989965;28;20470;-73
2023/07/25 00:37:56;;;;;;;3.33;3.13;;;16.50;99.90;;;;;;4989574;28;20512;-73
2023/07/25 00:40:23;;;;;;;3.33;3.10;;;16.40;99.90;;;;;;4991383;28;20949;-73
2023/07/25 00:42:54;;;;;;;5.07;3.50;;;16.40;99.90;;;;;;4977778;28;20430;-74
2023/07/25 00:45:21;;;;;;;4.87;3.60;;;16.30;99.90;;;;;;4978607;28;20488;-73
2023/07/25 00:47:48;;;;;;;6.70;3.73;;;16.20;99.90;;;;;;4989128;28;20513;-73
2023/07/25 00:50:14;;;;;;;4.47;3.80;;;16.20;99.90;;;;;;4996058;28;20429;-74
2023/07/25 00:52:42;;;;;;;3.53;3.30;;;16.20;99.90;;;;;;4985860;28;20482;-74
2023/07/25 00:55:09;;;;;;;3.87;3.47;;;16.10;99.90;;;;;;4984082;28;20504;-74
2023/07/25 00:57:36;;;;;;;4.03;2.87;;;16.20;99.90;;;;;;4991520;28;20444;-73
2023/07/25 01:00:03;;;;;;;3.90;3.60;;;16.20;99.90;;;;;;4980852;28;20496;-73
2023/07/25 01:02:30;;;;;;;3.47;3.17;;;16.20;99.90;;;;;;4982969;28;20427;-73
2023/07/25 01:04:56;;;;;;;3.50;3.30;;;16.20;99.90;;;;;;4977784;28;20503;-73
2023/07/25 01:07:24;;;;;;;4.43;3.30;;;16.20;99.90;;;;;;4978130;28;20471;-73
2023/07/25 01:09:52;;;;;;;6.93;3.00;;;16.20;99.90;;;;;;4981444;28;20463;-74
2023/07/25 01:12:19;;;;;;;3.57;3.10;;;16.20;99.90;;;;;;4983902;28;20456;-73
2023/07/25 01:14:45;;;;;;;6.20;3.37;;;16.20;99.90;;;;;;4985512;28;20516;-73
2023/07/25 01:17:14;;;;;;;3.37;3.07;;;16.20;99.90;;;;;;4988412;28;20849;-73
2023/07/25 01:19:42;;;;;;;3.83;3.33;;;16.30;99.90;;;;;;4982494;28;20891;-73
2023/07/25 01:22:09;;;;;;;4.00;3.60;;;16.30;99.90;;;;;;4985711;28;20438;-73
2023/07/25 01:24:41;;;;;;;4.33;3.60;;;16.30;99.90;;;;;;4988117;28;20482;-73
2023/07/25 01:27:08;;;;;;;3.50;3.30;;;16.20;99.90;;;;;;4987430;28;20435;-74
2023/07/25 01:29:35;;;;;;;4.17;3.77;;;16.10;99.90;;;;;;4978709;28;20493;-74
2023/07/25 01:32:01;;;;;;;4.17;3.77;;;16.00;99.90;;;;;;4988109;28;20463;-74
2023/07/25 01:34:28;;;;;;;3.87;3.57;;;15.80;99.90;;;;;;4985917;28;20870;-73
2023/07/25 01:36:55;;;;;;;3.63;3.30;;;15.80;99.90;;;;;;4987851;28;20470;-73
2023/07/25 01:39:21;;;;;;;5.97;3.50;;;15.80;99.90;;;;;;4978668;28;20869;-73
2023/07/25 01:41:49;;;;;;;4.60;4.20;;;15.80;99.90;;;;;;4978650;28;20438;-73
2023/07/25 01:44:16;;;;;;;6.37;4.07;;;15.80;99.90;;;;;;4981178;28;20445;-73
2023/07/25 01:46:43;;;;;;;5.77;4.20;;;15.80;99.90;;;;;;4978434;28;20431;-73
2023/07/25 01:49:10;;;;;;;4.53;3.90;;;15.80;99.90;;;;;;4988037;28;20462;-73
2023/07/25 01:51:37;;;;;;;3.97;3.57;;;15.80;99.90;;;;;;4984298;28;20459;-73
2023/07/25 01:54:04;;;;;;;3.80;3.50;;;15.80;99.90;;;;;;4984323;28;20441;-74
2023/07/25 01:56:30;;;;;;;4.30;3.63;;;15.80;99.90;;;;;;4984646;28;20461;-74
2023/07/25 01:58:58;;;;;;;3.60;3.30;;;15.90;99.90;;;;;;4989223;28;20430;-74
2023/07/25 02:01:25;;;;;;;6.40;4.00;;;15.90;99.90;;;;;;4989506;28;20437;-73
2023/07/25 02:03:52;;;;;;;6.10;3.30;;;15.90;99.90;;;;;;4975447;28;20471;-73
2023/07/25 02:06:18;;;;;;;4.83;4.33;;;16.00;99.90;;;;;;4986042;28;20492;-73
2023/07/25 02:08:45;;;;;;;4.20;3.53;;;16.00;99.90;;;;;;4984832;28;20935;-74
2023/07/25 02:11:12;;;;;;;3.87;3.40;;;16.10;99.90;;;;;;4988582;28;20514;-74
2023/07/25 02:13:38;;;;;;;6.30;3.33;;;16.10;99.90;;;;;;4990002;28;20504;-73
2023/07/25 02:16:06;;;;;;;4.53;3.87;;;16.20;99.90;;;;;;4993769;28;20461;-73
2023/07/25 02:18:33;;;;;;;4.20;3.80;;;16.20;99.90;;;;;;4979733;28;20431;-73
2023/07/25 02:21:00;;;;;;;5.10;4.23;;;16.30;99.90;;;;;;4986842;28;20842;-73
2023/07/25 02:23:26;;;;;;;4.40;4.00;;;16.30;99.90;;;;;;4987482;28;20973;-74
2023/07/25 02:25:53;;;;;;;4.50;4.10;;;16.40;99.90;;;;;;4983859;28;20446;-74
2023/07/25 02:28:20;;;;;;;7.80;5.33;;;16.40;99.90;;;;;;4982048;28;20435;-73
2023/07/25 02:30:46;;;;;;;6.37;5.13;;;16.30;99.90;;;;;;4980495;28;20486;-73
2023/07/25 02:33:14;;;;;;;6.83;5.47;;;16.30;99.90;;;;;;4990265;28;20459;-73
2023/07/25 02:35:41;;;;;;;5.73;5.13;;;16.30;99.90;;;;;;4987749;28;20453;-73
2023/07/25 02:38:08;;;;;;;5.20;4.70;;;16.30;99.90;;;;;;4979386;28;21085;-73
2023/07/25 02:40:35;;;;;;;7.30;5.27;;;16.30;99.90;;;;;;4981979;28;20446;-73
2023/07/25 02:43:03;;;;;;;6.50;5.60;;;16.30;99.90;;;;;;4991032;28;20434;-73
2023/07/25 02:45:30;;;;;;;10.03;5.33;;;16.30;99.90;;;;;;4981282;28;20824;-73
2023/07/25 02:47:56;;;;;;;7.83;5.77;;;16.30;99.90;;;;;;4989180;28;20442;-74
2023/07/25 02:50:24;;;;;;;5.70;4.90;;;16.30;99.90;;;;;;4975986;28;20510;-73
2023/07/25 02:52:51;;;;;;;6.07;4.50;;;16.30;99.90;;;;;;4983630;28;20509;-73
2023/07/25 02:55:18;;;;;;;3.73;3.43;;;16.20;99.90;;;;;;4984155;28;20475;-73
2023/07/25 02:57:44;;;;;;;6.63;3.90;;;16.10;99.90;;;;;;4988201;28;20462;-73
2023/07/25 03:00:12;;;;;;;5.10;3.73;;;16.00;99.90;;;;;;4985383;28;20434;-73
2023/07/25 03:02:39;;;;;;;7.17;4.37;;;15.90;99.90;;;;;;4979897;28;20464;-73
2023/07/25 03:05:06;;;;;;;4.63;3.60;;;15.90;99.90;;;;;;4984890;28;20533;-73
2023/07/25 03:07:34;;;;;;;4.37;3.93;;;15.80;99.90;;;;;;4982711;28;20488;-74
2023/07/25 03:10:01;;;;;;;4.90;4.10;;;15.80;99.90;;;;;;4982264;28;20504;-73
2023/07/25 03:12:27;;;;;;;4.70;4.30;;;15.80;99.90;;;;;;4981635;28;20494;-73
2023/07/25 03:14:54;;;;;;;5.63;4.27;;;15.70;99.90;;;;;;4979444;28;20513;-74
2023/07/25 03:17:21;;;;;;;4.37;3.97;;;15.70;99.90;;;;;;4985304;28;20466;-74
2023/07/25 03:19:47;;;;;;;4.37;3.97;;;15.80;99.90;;;;;;4986671;28;20427;-74
2023/07/25 03:22:14;;;;;;;4.70;4.23;;;15.80;99.90;;;;;;4989498;28;20514;-73
2023/07/25 03:24:42;;;;;;;4.60;4.20;;;15.90;99.90;;;;;;4983354;28;20512;-73
2023/07/25 03:27:08;;;;;;;4.60;4.20;;;15.90;99.90;;;;;;4978976;28;20969;-73
2023/07/25 03:29:35;;;;;;;4.17;3.87;;;15.90;99.90;;;;;;4981685;28;20462;-75
2023/07/25 03:32:02;;;;;;;5.00;4.27;;;15.90;99.90;;;;;;4985577;28;20451;-74
2023/07/25 03:34:28;;;;;;;6.20;4.20;;;15.90;99.90;;;;;;4982251;28;20431;-73
2023/07/25 03:36:55;;;;;;;4.17;3.83;;;15.90;99.90;;;;;;4976029;28;20462;-73
2023/07/25 03:39:22;;;;;;;8.10;4.43;;;15.90;99.90;;;;;;4974773;28;20461;-73
2023/07/25 03:41:49;;;;;;;9.10;4.30;;;16.00;99.90;;;;;;4985072;28;20477;-74
2023/07/25 03:44:17;;;;;;;6.47;4.50;;;15.90;99.90;;;;;;4984964;28;20433;-74
2023/07/25 03:46:44;;;;;;;8.03;4.87;;;15.90;99.90;;;;;;4981592;28;20511;-74
2023/07/25 03:49:11;;;;;;;6.60;3.90;;;15.90;99.90;;;;;;4979627;28;20484;-73
2023/07/25 03:51:38;;;;;;;8.43;4.40;;;15.90;99.90;;;;;;4981838;28;20433;-73
2023/07/25 03:54:04;;;;;;;7.80;4.70;;;15.90;99.90;;;;;;4982830;28;20813;-74
2023/07/25 03:56:31;;;;;;;8.73;4.43;;;15.90;99.90;;;;;;4978120;28;20492;-74
2023/07/25 03:58:59;;;;;;;7.83;3.87;;;15.90;99.90;;;;;;4974627;28;20509;-73
2023/07/25 04:01:26;;;;;;;5.27;4.40;;;15.90;99.90;;;;;;4978593;28;22213;-74
2023/07/25 04:03:52;;;;;;;5.37;4.07;;;15.90;99.90;;;;;;4984176;28;20973;-73
2023/07/25 04:06:19;;;;;;;8.37;4.97;;;16.00;99.90;;;;;;4988315;28;20450;-73
2023/07/25 04:08:46;;;;;;;10.67;5.80;;;16.00;99.90;;;;;;4982072;28;20464;-73
2023/07/25 04:11:14;;;;;;;6.97;6.10;;;16.00;99.90;;;;;;4978172;28;20425;-74
2023/07/25 04:13:40;;;;;;;10.40;6.27;;;16.00;99.90;;;;;;4981904;28;20936;-73
2023/07/25 04:16:08;;;;;;;9.63;6.37;;;16.00;99.90;;;;;;4985906;28;20462;-73
2023/07/25 04:18:35;;;;;;;7.53;6.23;;;16.00;99.90;;;;;;4986818;28;20472;-73
2023/07/25 04:21:02;;;;;;;9.70;7.67;;;16.00;99.90;;;;;;4988075;28;20429;-74
2023/07/25 04:23:28;;;;;;;9.73;8.00;;;16.10;99.90;;;;;;4980883;28;20427;-73
2023/07/25 04:25:55;;;;;;;8.50;6.83;;;16.10;99.90;;;;;;4980306;28;21029;-73
2023/07/25 04:28:22;;;;;;;11.40;7.53;;;16.20;99.90;;;;;;4979767;28;21004;-73
2023/07/25 04:30:48;;;;;;;9.43;7.27;;;16.20;99.90;;;;;;4982667;28;20460;-71
2023/07/25 04:33:16;;;;;;;7.73;7.00;;;16.30;99.90;;;;;;4980285;28;20489;-71
2023/07/25 04:35:45;;;;;;;8.90;7.37;;;16.30;99.90;;;;;;4979702;28;20508;-72
2023/07/25 04:38:11;;;;;;;7.67;6.80;;;16.30;99.90;;;;;;4983736;28;20839;-70
2023/07/25 04:40:38;;;;;;;7.57;6.77;;;16.30;99.90;;;;;;4985396;28;20466;-71
2023/07/25 04:43:05;;;;;;;10.30;7.97;;;16.40;99.90;;;;;;4977931;28;21026;-71
2023/07/25 04:45:31;;;;;;;8.93;7.80;;;16.30;99.90;;;;;;4980685;28;20453;-71
2023/07/25 04:47:58;;;;;;;11.97;7.80;;;16.30;99.90;;;;;;4987806;28;20536;-71
2023/07/25 04:50:26;;;;;;;11.20;8.03;;;16.30;99.90;;;;;;4983757;28;21002;-71
2023/07/25 04:52:53;;;;;;;7.87;7.10;;;16.30;99.90;;;;;;4990583;28;20459;-71
2023/07/25 04:55:19;;;;;;;9.90;7.90;;;16.30;99.90;;;;;;4990903;28;20479;-72
2023/07/25 04:57:46;;;;;;;9.93;7.80;;;16.40;99.90;;;;;;4980925;28;20873;-71
2023/07/25 05:00:13;;;;;;;13.33;8.30;;;16.30;99.90;;;;;;4987338;28;20472;-71
2023/07/25 05:02:41;;;;;;;15.30;9.03;;;16.40;99.90;;;;;;4991323;28;20429;-71
2023/07/25 05:05:08;;;;;;;12.60;7.90;;;16.40;99.90;;;;;;4991544;28;20449;-71
2023/07/25 05:07:36;;;;;;;12.53;9.07;;;16.40;99.90;;;;;;4979306;28;20846;-71
2023/07/25 05:10:03;;;;;;;10.70;9.30;;;16.50;99.90;;;;;;4980247;28;20468;-71
2023/07/25 05:12:29;;;;;;;10.57;8.97;;;16.50;99.90;;;;;;4984218;28;20867;-71
2023/07/25 05:14:56;;;;;;;15.63;10.50;;;16.40;99.90;;;;;;4989008;28;20461;-71
2023/07/25 05:17:23;;;;;;;12.80;9.57;;;16.40;99.90;;;;;;4987904;28;20487;-71
2023/07/25 05:19:49;;;;;;;11.77;9.63;;;16.40;99.90;;;;;;4986370;28;20506;-71
2023/07/25 05:22:16;;;;;;;16.47;10.83;;;16.50;99.90;;;;;;4981722;28;20433;-72
2023/07/25 05:24:44;;;;;;;15.80;10.75;;;16.50;99.90;;;;;;4986006;28;20456;-70
2023/07/25 05:27:11;;;;;;;15.73;12.33;;;16.50;99.90;;;;;;4982957;28;20209;-70
2023/07/25 05:29:37;;;;;;;15.00;11.00;;;16.60;99.90;;;;;;4980900;28;20430;-70
2023/07/25 05:32:05;;;;;;;15.63;11.07;;;16.60;99.90;;;;;;4991405;28;20459;-70
2023/07/25 05:34:31;;;;;;;13.20;9.97;;;16.70;99.90;;;;;;4987890;28;20467;-70
2023/07/25 05:36:58;;;;;;;14.53;10.33;;;16.80;99.90;;;;;;4988459;28;20421;-70
2023/07/25 05:39:24;;;;;;;17.63;10.83;;;16.90;99.90;;;;;;4982171;28;20453;-71
2023/07/25 05:41:52;;;;;;;14.20;11.40;;;17.00;99.90;;;;;;4985811;28;20492;-70
2023/07/25 05:44:19;;;;;;;18.37;10.70;;;17.10;99.90;;;;;;4988957;28;20447;-71
2023/07/25 05:46:46;;;;;;;15.67;11.10;;;17.20;99.90;;;;;;4987915;28;20471;-71
2023/07/25 05:49:12;;;;;;;14.63;11.13;;;17.30;99.90;;;;;;4986882;28;21508;-71
2023/07/25 05:51:39;;;;;;;16.20;12.20;;;17.40;99.90;;;;;;4986554;28;20476;-71
2023/07/25 05:54:05;;;;;;;16.00;12.17;;;17.40;99.90;;;;;;4987371;28;20490;-72
2023/07/25 05:56:32;;;;;;;19.63;12.60;;;17.50;99.90;;;;;;4987329;28;21517;-71
2023/07/25 05:59:00;;;;;;;19.30;11.83;;;17.50;99.90;;;;;;4986963;28;20815;-71
2023/07/25 06:01:27;;;;;;;17.70;12.63;;;17.50;99.90;;;;;;4982451;28;20462;-71
2023/07/25 06:03:53;;;;;;;20.43;11.57;;;17.40;99.90;;;;;;4986895;28;20430;-71
2023/07/25 06:06:20;;;;;;;19.23;12.43;;;17.40;99.90;;;;;;4987201;28;21011;-71
2023/07/25 06:08:47;;;;;;;20.33;11.87;;;17.50;99.90;;;;;;4986594;28;20438;-72
2023/07/25 06:11:13;;;;;;;19.57;12.93;;;17.50;99.90;;;;;;4987025;28;20437;-72
2023/07/25 06:13:40;;;;;;;15.67;11.43;;;17.60;99.90;;;;;;4987907;28;20905;-71
2023/07/25 06:16:08;;;;;;;15.83;11.50;;;17.60;99.90;;;;;;4986433;28;20521;-72
2023/07/25 06:18:35;;;;;;;14.83;11.00;;;17.60;99.90;;;;;;4987216;28;20483;-72
2023/07/25 06:21:01;;;;;;;16.90;11.93;;;17.60;99.90;;;;;;4987082;28;20429;-71
2023/07/25 06:23:28;;;;;;;21.27;11.67;;;17.60;99.90;;;;;;4987921;28;20438;-71
2023/07/25 06:25:54;;;;;;;13.10;10.17;;;17.60;99.90;;;;;;4988098;28;20474;-72
2023/07/25 06:28:21;;;;;;;12.47;10.40;;;17.60;99.90;;;;;;4987369;28;20464;-71
2023/07/25 06:30:48;;;;;;;13.83;10.70;;;17.60;99.90;;;;;;4985480;28;21520;-71
2023/07/25 06:33:16;;;;;;;12.13;9.53;;;17.60;99.90;;;;;;4988501;28;20455;-72
2023/07/25 06:35:43;;;;;;;14.83;10.50;;;17.60;99.90;;;;;;4987775;28;20483;-71
2023/07/25 06:38:10;;;;;;;15.97;10.63;;;17.60;99.90;;;;;;4988252;28;20560;-72
2023/07/25 06:40:36;;;;;;;14.13;11.70;;;17.70;99.90;;;;;;4987178;28;20803;-72
2023/07/25 06:43:03;;;;;;;18.20;11.63;;;17.70;99.90;;;;;;4985993;28;20459;-72
2023/07/25 06:45:30;;;;;;;20.63;12.80;;;17.60;99.90;;;;;;4987113;28;20995;-72
2023/07/25 06:47:56;;;;;;;24.60;13.37;;;17.60;99.90;;;;;;4987621;28;20460;-72
2023/07/25 06:50:24;;;;;;;21.73;15.37;;;17.50;99.90;;;;;;4986385;28;20494;-72
2023/07/25 06:52:51;;;;;;;19.33;14.67;;;17.50;99.90;;;;;;4988144;28;20437;-72
2023/07/25 06:55:19;;;;;;;20.13;15.27;;;17.40;99.90;;;;;;4987173;28;21132;-72
2023/07/25 06:57:45;;;;;;;22.23;15.63;;;17.30;99.90;;;;;;4987647;28;20487;-72
2023/07/25 07:00:13;;;;;;;26.80;16.47;;;17.30;99.90;;;;;;4985873;28;20533;-71
2023/07/25 07:02:40;;;;;;;29.73;16.30;;;17.20;99.90;;;;;;4987995;28;20470;-72
2023/07/25 07:05:07;;;;;;;24.23;17.83;;;17.20;99.90;;;;;;4987099;28;20520;-71
2023/07/25 07:07:35;;;;;;;24.07;16.70;;;17.10;99.90;;;;;;4984376;28;20883;-72
2023/07/25 07:10:02;;;;;;;24.40;15.67;;;17.10;99.90;;;;;;4987735;28;20484;-73
2023/07/25 07:12:28;;;;;;;18.83;14.30;;;17.00;99.90;;;;;;4987485;28;20813;-73
2023/07/25 07:14:55;;;;;;;24.97;17.57;;;16.90;99.90;;;;;;4987882;28;20475;-73
2023/07/25 07:17:22;;;;;;;26.20;15.97;;;16.90;99.90;;;;;;4986989;28;20505;-71
2023/07/25 07:19:48;;;;;;;24.77;16.40;;;16.80;99.90;;;;;;4986359;28;20492;-72
2023/07/25 07:22:15;;;;;;;24.30;16.00;;;16.70;99.90;;;;;;4987617;28;21067;-72
2023/07/25 07:24:43;;;;;;;23.60;16.90;;;16.60;99.90;;;;;;4987341;28;20475;-72
2023/07/25 07:27:10;;;;;;;25.77;16.87;;;16.50;99.90;;;;;;4986826;28;20510;-72
2023/07/25 07:29:36;;;;;;;25.20;16.67;;;16.40;99.90;;;;;;4986643;28;20442;-71
2023/07/25 07:32:03;;;;;;;26.43;16.97;;;16.40;99.90;;;;;;4986020;28;20796;-73
2023/07/25 07:34:30;;;;;;;26.77;17.17;;;16.30;99.90;;;;;;4988937;28;20444;-73
2023/07/25 07:36:57;;;;;;;27.63;17.10;;;16.30;99.90;;;;;;4987646;28;21754;-73
2023/07/25 07:39:25;;;;;;;19.40;14.83;;;16.20;99.90;;;;;;4990347;28;20534;-73
2023/07/25 07:41:52;;;;;;;24.70;15.97;;;16.20;99.90;;;;;;4984945;28;20442;-73
2023/07/25 07:44:19;;;;;;;22.87;16.07;;;16.20;99.90;;;;;;4983371;28;20434;-73
2023/07/25 07:46:46;;;;;;;22.87;16.03;;;16.10;99.90;;;;;;4978814;28;20430;-73
2023/07/25 07:49:12;;;;;;;24.23;16.43;;;16.10;99.90;;;;;;4979711;28;20486;-73
2023/07/25 07:51:39;;;;;;;24.03;15.93;;;16.00;99.90;;;;;;4977630;28;20451;-73
2023/07/25 07:54:06;;;;;;;20.93;15.17;;;16.00;99.90;;;;;;4986976;28;20506;-73
2023/07/25 07:56:33;;;;;;;22.73;14.90;;;16.00;99.90;;;;;;4990123;28;20581;-72
2023/07/25 07:59:01;;;;;;;24.83;14.90;;;15.90;99.90;;;;;;4987713;28;20528;-71
2023/07/25 08:01:27;;;;;;;22.40;14.90;;;15.90;99.90;;;;;;4981989;28;20481;-72
2023/07/25 08:03:54;;;;;;;20.90;15.17;;;15.90;99.90;;;;;;4987514;28;20504;-71
2023/07/25 08:06:20;;;;;;;21.27;14.30;;;15.80;99.90;;;;;;4989513;28;20558;-71
2023/07/25 08:08:47;;;;;;;22.27;14.37;;;15.70;99.90;;;;;;4990722;28;20515;-71
2023/07/25 08:11:14;;;;;;;17.63;12.40;;;15.60;99.90;;;;;;4989816;28;20463;-71
2023/07/25 08:13:40;;;;;;;20.80;15.10;;;15.50;99.90;;;;;;4979029;28;20484;-71
2023/07/25 08:16:08;;;;;;;22.97;14.47;;;15.50;99.90;;;;;;4993505;28;21019;-72
2023/07/25 08:18:35;;;;;;;21.67;14.90;;;15.40;99.90;;;;;;4994070;28;20965;-72
2023/07/25 08:21:02;;;;;;;22.73;15.27;;;15.40;99.90;;;;;;4988001;28;20458;-72
2023/07/25 08:23:29;;;;;;;23.80;13.60;;;15.30;99.90;;;;;;4991733;28;20487;-70
2023/07/25 08:25:56;;;;;;;21.97;15.13;;;15.30;99.90;;;;;;4994683;28;20498;-71
2023/07/25 08:28:23;;;;;;;21.70;14.30;;;15.30;99.90;;;;;;5000229;28;20483;-71
2023/07/25 08:30:58;;;;;;;16.93;13.10;;;15.30;99.90;;;;;;4993145;28;20889;-72
2023/07/25 08:33:27;;;;;;;29.23;14.60;;;15.30;99.90;;;;;;4992614;28;20460;-71
2023/07/25 08:35:54;;;;;;;19.80;13.30;;;15.20;99.90;;;;;;4992097;28;21018;-72
2023/07/25 08:38:21;;;;;;;19.37;12.60;;;15.20;99.90;;;;;;4999241;28;20511;-71
2023/07/25 08:40:55;;;;;;;14.40;10.60;;;15.30;99.90;;;;;;4986724;28;20455;-72
2023/07/25 08:43:23;;;;;;;17.67;10.03;;;15.10;99.90;;;;;;4980411;28;20940;-70
2023/07/25 08:45:51;;;;;;;13.70;11.40;;;15.10;99.90;;;;;;4981365;28;20535;-70
2023/07/25 08:48:19;;;;;;;20.27;13.60;;;15.00;99.90;;;;;;4993595;28;20998;-71
2023/07/25 08:50:53;;;;;;;19.67;11.90;;;15.00;99.90;;;;;;4986680;28;20538;-70
2023/07/25 08:53:22;;;;;;;15.47;11.60;;;15.00;99.90;;;;;;4990855;28;20425;-70
2023/07/25 08:55:49;;;;;;;17.70;11.87;;;15.10;99.90;;;;;;4990265;28;20461;-70
2023/07/25 08:58:17;;;;;;;13.83;11.87;;;15.10;99.90;;;;;;4989129;28;20902;-70
2023/07/25 09:00:44;;;;;;;19.40;11.83;;;15.10;99.90;;;;;;4988916;28;20438;-70
2023/07/25 09:03:12;;;;;;;18.33;11.33;;;15.20;99.90;;;;;;4990362;28;20430;-70
2023/07/25 09:05:38;;;;;;;14.80;10.70;;;15.20;99.90;;;;;;4989381;28;20449;-70
2023/07/25 09:08:06;;;;;;;13.37;10.37;;;15.20;99.90;;;;;;4990302;28;20467;-70
2023/07/25 09:10:33;;;;;;;16.20;10.70;;;15.20;99.90;;;;;;4992847;28;20487;-70
2023/07/25 09:13:00;;;;;;;12.07;9.40;;;15.20;99.90;;;;;;4983550;28;20433;-70
2023/07/25 09:15:26;;;;;;;12.70;10.40;;;15.20;99.90;;;;;;4990974;28;20450;-70
2023/07/25 09:17:54;;;;;;;13.10;10.60;;;15.30;99.90;;;;;;4988487;28;20495;-70
2023/07/25 09:20:21;;;;;;;14.73;10.00;;;15.20;99.90;;;;;;4990668;28;20452;-70
2023/07/25 09:22:48;;;;;;;11.20;9.00;;;15.20;99.90;;;;;;4997592;28;20433;-70
2023/07/25 09:25:17;;;;;;;14.57;9.43;;;15.10;99.90;;;;;;5011144;28;20459;-70
2023/07/25 09:27:45;;;;;;;15.83;8.30;;;15.10;99.90;;;;;;5005153;28;20518;-70
2023/07/25 09:30:13;;;;;;;8.80;7.60;;;15.10;99.90;;;;;;5000351;28;20438;-69
2023/07/25 09:32:44;;;;;;;10.23;8.53;;;15.10;99.90;;;;;;5000144;28;20978;-68
2023/07/25 09:35:11;;;;;;;14.90;8.50;;;15.00;99.90;;;;;;5001206;28;20525;-68
2023/07/25 09:37:38;;;;;;;9.30;7.43;;;15.00;99.90;;;;;;4999788;28;20448;-69
2023/07/25 09:40:09;;;;;;;14.03;7.80;;;15.00;99.90;;;;;;5009385;28;20493;-67
2023/07/25 09:42:40;;;;;;;12.10;7.10;;;15.00;99.90;;;;;;4999227;28;20872;-69
2023/07/25 09:45:09;;;;;;;10.67;6.90;;;15.00;99.90;;;;;;5001175;28;20581;-69
2023/07/25 09:47:36;;;;;;;17.60;7.20;;;15.00;99.90;;;;;;4986488;28;20452;-69
2023/07/25 09:50:04;;;;;;;9.70;7.30;;;15.00;99.90;;;;;;4990125;28;20493;-69
2023/07/25 09:52:39;;;;;;;10.10;6.40;;;15.00;99.90;;;;;;4989352;28;20489;-69
2023/07/25 09:55:06;;;;;;;10.30;6.67;;;15.00;99.90;;;;;;4995972;28;20902;-69
2023/07/25 09:57:34;;;;;;;8.97;7.83;;;14.90;99.90;;;;;;4993140;28;20447;-69
2023/07/25 10:00:03;;;;;;;10.70;8.07;;;14.90;99.90;;;;;;4993347;28;20499;-69
2023/07/25 10:02:29;;;;;;;12.90;8.60;;;14.90;99.90;;;;;;4990932;28;20511;-69
2023/07/25 10:04:57;;;;;;;10.80;8.17;;;14.90;99.90;;;;;;5007230;28;20541;-70
2023/07/25 10:07:25;;;;;;;11.17;8.07;;;15.00;99.90;;;;;;5006708;28;21026;-69
2023/07/25 10:09:52;;;;;;;12.10;8.20;;;15.00;99.90;;;;;;5012250;28;20548;-69
2023/07/25 10:12:19;;;;;;;9.10;7.53;;;15.10;99.90;;;;;;5012321;28;20982;-69
2023/07/25 10:14:47;;;;;;;10.67;7.70;;;15.20;99.90;;;;;;4995741;28;20445;-69
2023/07/25 10:17:15;;;;;;;10.00;7.77;;;15.30;99.90;;;;;;4991152;28;21030;-69
2023/07/25 10:19:49;;;;;;;9.73;7.50;;;15.50;99.90;;;;;;4989528;28;20466;-69
2023/07/25 10:22:16;;;;;;;9.30;7.47;;;15.80;99.90;;;;;;4995445;28;20436;-69
2023/07/25 10:24:43;;;;;;;9.97;7.30;;;16.10;99.90;;;;;;5005933;28;20496;-69
2023/07/25 10:27:10;;;;;;;8.00;5.30;;;16.40;99.90;;;;;;4994658;28;20436;-69
2023/07/25 10:29:41;;;;;;;7.50;5.50;;;16.60;99.90;;;;;;5007499;28;20437;-69
2023/07/25 10:32:09;;;;;;;5.53;5.00;;;16.80;99.90;;;;;;4996615;28;20480;-68
2023/07/25 10:34:48;;;;;;;5.67;4.90;;;16.90;99.90;;;;;;5004616;28;20851;-69
2023/07/25 10:37:22;;;;;;;15.87;5.23;;;17.00;99.90;;;;;;5003022;28;20479;-69
2023/07/25 10:40:09;;;;;;;9.20;5.03;;;17.10;99.90;;;;;;4998395;28;20464;-69
2023/07/25 10:42:42;;;;;;;6.80;5.00;;;16.90;99.90;;;;;;4997912;28;20425;-69
2023/07/25 10:45:19;;;;;;;5.23;4.80;;;16.80;99.90;;;;;;5000756;28;20846;-67
2023/07/25 10:47:48;;;;;;;6.90;5.60;;;16.80;99.90;;;;;;4991728;28;20506;-68
2023/07/25 10:50:19;;;;;;;5.07;4.57;;;16.80;99.90;;;;;;4997207;28;20917;-69
2023/07/25 10:52:46;;;;;;;9.30;5.37;;;16.80;99.90;;;;;;5001762;28;20454;-68
2023/07/25 10:55:13;;;;;;;7.33;5.37;;;16.90;99.90;;;;;;4996902;28;20454;-68
2023/07/25 10:57:40;;;;;;;6.00;5.17;;;17.10;99.90;;;;;;5007794;28;20764;-68
2023/07/25 11:00:09;;;;;;;6.83;4.73;;;17.10;99.90;;;;;;4990700;28;20544;-69
2023/07/25 11:02:38;;;;;;;5.10;4.70;;;17.20;99.90;;;;;;4993654;28;20462;-69
2023/07/25 11:05:24;;;;;;;5.03;4.43;;;17.20;99.90;;;;;;4996117;28;20450;-68
2023/07/25 11:07:53;;;;;;;6.30;5.13;;;17.20;99.90;;;;;;5002788;28;20431;-69
2023/07/25 11:10:21;;;;;;;5.77;4.93;;;17.20;99.90;;;;;;4985093;28;20419;-69
2023/07/25 11:12:50;;;;;;;4.30;4.00;;;17.20;99.90;;;;;;5000774;28;20876;-69
2023/07/25 11:15:16;;;;;;;5.63;5.13;;;17.10;99.90;;;;;;5003966;28;20478;-68
2023/07/25 11:17:44;;;;;;;6.93;6.10;;;17.00;99.90;;;;;;4997924;28;20422;-69
2023/07/25 11:20:15;;;;;;;7.13;5.13;;;17.00;99.90;;;;;;4989351;28;20520;-70
2023/07/25 11:22:44;;;;;;;5.73;4.77;;;16.90;99.90;;;;;;4985922;28;20664;-69
2023/07/25 11:25:11;;;;;;;6.70;5.07;;;16.80;99.90;;;;;;4995193;28;20480;-69
2023/07/25 11:27:41;;;;;;;5.30;4.30;;;16.70;99.90;;;;;;4983930;28;20802;-69
2023/07/25 11:30:13;;;;;;;7.20;4.80;;;16.60;99.90;;;;;;4998444;28;20829;-69
2023/07/25 11:32:40;;;;;;;7.07;4.87;;;16.50;99.90;;;;;;4995751;28;20450;-69
2023/07/25 11:35:07;;;;;;;7.00;4.67;;;16.40;99.90;;;;;;4996592;28;20505;-69
2023/07/25 11:37:34;;;;;;;4.87;4.43;;;16.40;99.90;;;;;;4996393;28;20544;-69
2023/07/25 11:40:19;;;;;;;5.73;4.47;;;16.50;99.90;;;;;;4995834;28;21011;-69
2023/07/25 11:42:48;;;;;;;4.90;4.37;;;16.60;99.90;;;;;;4985854;28;20461;-68
2023/07/25 11:45:16;;;;;;;5.90;4.40;;;16.80;99.90;;;;;;5007852;28;20486;-69
2023/07/25 11:47:45;;;;;;;7.00;4.47;;;17.00;99.90;;;;;;5001019;28;21030;-69
2023/07/25 11:50:13;;;;;;;5.70;4.73;;;17.40;99.90;;;;;;4985133;28;20893;-69
2023/07/25 11:52:43;;;;;;;5.87;4.17;;;17.80;99.90;;;;;;4982395;28;20489;-69
2023/07/25 11:55:10;;;;;;;3.97;3.50;;;18.20;99.90;;;;;;5005794;28;20897;-70
2023/07/25 11:57:40;;;;;;;3.53;3.23;;;18.80;99.90;;;;;;4976408;28;20462;-68
2023/07/25 12:00:11;;;;;;;5.60;3.40;;;18.90;99.90;;;;;;4986381;28;20542;-69
2023/07/25 12:02:38;;;;;;;3.50;2.93;;;19.30;99.90;;;;;;4998766;28;20562;-69
2023/07/25 12:05:05;;;;;;;5.73;3.13;;;19.90;99.90;;;;;;5006358;28;20477;-69
2023/07/25 12:07:51;;;;;;;5.10;3.20;;;20.40;99.90;;;;;;5002036;28;20455;-69
2023/07/25 12:10:26;;;;;;;17.27;3.40;;;20.70;99.90;;;;;;4997363;28;20498;-70
2023/07/25 12:12:55;;;;;;;6.43;3.13;;;21.10;99.90;;;;;;4992055;28;20455;-70
2023/07/25 12:15:23;;;;;;;5.53;3.33;;;21.20;99.90;;;;;;4990278;28;20493;-69
2023/07/25 12:17:50;;;;;;;4.23;3.60;;;21.10;99.90;;;;;;4990987;28;20450;-69
2023/07/25 12:20:18;;;;;;;8.33;3.77;;;21.10;99.90;;;;;;5002715;28;20861;-69
2023/07/25 12:22:45;;;;;;;4.17;3.30;;;20.90;99.90;;;;;;5010077;28;20923;-69
2023/07/25 12:25:16;;;;;;;7.47;3.73;;;20.90;99.90;;;;;;4999069;28;20470;-69
2023/07/25 12:27:46;;;;;;;7.13;3.80;;;20.80;99.90;;;;;;4986727;28;20490;-69
2023/07/25 12:30:14;;;;;;;4.30;3.90;;;20.70;99.90;;;;;;4991022;28;20451;-69
2023/07/25 12:32:41;;;;;;;4.73;3.53;;;20.50;99.90;;;;;;4978347;28;20458;-70
2023/07/25 12:35:09;;;;;;;4.97;3.50;;;20.20;99.90;;;;;;5010671;28;20470;-69
2023/07/25 12:37:36;;;;;;;4.03;3.30;;;19.90;99.90;;;;;;4991383;28;20466;-69
2023/07/25 12:40:03;;;;;;;7.40;3.40;;;19.80;99.90;;;;;;4989257;28;21002;-70
2023/07/25 12:42:30;;;;;;;3.63;3.30;;;19.50;99.90;;;;;;4998601;28;20454;-70